Bookmark and Share
Track history (hours):
 

Greybeard

More information available from US FCC via Universal Licensing System and Coast Guard Vessel Documentation Center.

Last reported at 2013-Jun-30 12:31 UTC. Time now 2014-Apr-19 00:09 UTC.
Position N 36°48' W 121°47'.
Warning: this ship's position is months out of date.

Length 10 m.

Type: Fishing. MMSI: 367458170.

NotesDate/timePositionNaut miles runAvg speedWind from/ knotsBaromVisibWave heightAir tempDewpointWater temp
2013-Jun-30 12:31N 36°48' W 121°47'  
2013-Jun-28 06:27N 37°07' W 122°18'54 3.0
2013-Jun-27 12:24N 37°54' W 122°53'5 5.9
2013-Jun-27 11:32N 37°58' W 122°56'3 2.5
2013-Jun-27 10:32N 38°00' W 122°58'0 0.0
2013-Jun-27 09:26N 38°00' W 122°58'0 0.0
2013-Jun-27 08:32N 38°00' W 122°58'0 0.0
2013-Jun-27 07:26N 38°00' W 122°58'0 0.0
2013-Jun-27 06:30N 38°00' W 122°58'0 0.0
2013-Jun-27 05:30N 38°00' W 122°58'0 0.0
2013-Jun-27 04:30N 38°00' W 122°58'1 1.5
2013-Jun-27 03:32N 37°59' W 122°57'6 5.5
2013-Jun-27 02:30N 37°57' W 123°04'7 6.4
2013-Jun-27 01:24N 37°54' W 123°12'3 3.7
2013-Jun-27 00:28N 37°53' W 123°16'9 0.8
2013-Jun-26 12:33N 37°57' W 123°06'7 6.4
2013-Jun-26 11:28N 37°59' W 122°58'2 1.7
2013-Jun-26 10:28N 38°00' W 122°57'0 0.0
2013-Jun-26 09:34N 38°00' W 122°57'0 0.0
2013-Jun-26 08:34N 38°00' W 122°57'0 0.0
2013-Jun-26 07:34N 38°00' W 122°57'0 0.0
2013-Jun-26 06:28N 38°00' W 122°57'0 0.0
2013-Jun-26 05:28N 38°00' W 122°57'0 0.0
2013-Jun-26 04:29N 38°00' W 122°57'0 0.0
2013-Jun-26 03:29N 38°00' W 122°57'0 0.0
2013-Jun-26 02:17N 38°00' W 122°57'0 0.0
2013-Jun-26 01:17N 38°00' W 122°57'0 0.0
2013-Jun-26 00:29N 38°00' W 122°57'0 0.0
2013-Jun-25 23:29N 38°00' W 122°57'0 0.0
2013-Jun-25 22:23N 38°00' W 122°57'0 0.0
2013-Jun-25 21:17N 38°00' W 122°57'0 0.0
2013-Jun-25 20:29N 38°00' W 122°57'0 0.0
2013-Jun-25 19:16N 38°00' W 122°57'0 0.0
2013-Jun-25 18:32N 38°00' W 122°57'0 0.0
2013-Jun-25 17:32N 38°00' W 122°57'0 0.1
2013-Jun-25 16:30N 38°00' W 122°58'0 0.0
2013-Jun-25 15:32N 38°00' W 122°58'0 0.0
2013-Jun-25 14:23N 38°00' W 122°58'0 0.0
2013-Jun-25 13:20N 38°00' W 122°58'0 0.0
2013-Jun-25 12:19N 38°00' W 122°58'0 0.0
2013-Jun-25 11:31N 38°00' W 122°58'0 0.0
2013-Jun-25 10:19N 38°00' W 122°58'0 0.0
2013-Jun-25 09:25N 38°00' W 122°58'0 0.0
2013-Jun-25 08:31N 38°00' W 122°58'0 0.0
2013-Jun-25 07:31N 38°00' W 122°58'0 0.0
2013-Jun-25 06:31N 38°00' W 122°58'0 0.0
2013-Jun-25 05:31N 38°00' W 122°58'0 0.0
2013-Jun-25 04:31N 38°00' W 122°58'0 0.0
2013-Jun-25 03:31N 38°00' W 122°58'0 0.0
2013-Jun-25 02:31N 38°00' W 122°58'0 0.0
2013-Jun-25 01:31N 38°00' W 122°58'0 0.0
2013-Jun-25 00:31N 38°00' W 122°58'0 0.0
2013-Jun-24 23:31N 38°00' W 122°58'2 2.4
2013-Jun-24 22:33N 37°58' W 122°58'5 5.0
2013-Jun-24 21:33N 37°55' W 123°03'4 3.5
2013-Jun-24 20:32N 37°52' W 123°05'1 1.0
2013-Jun-24 19:26N 37°51' W 123°05'1 0.5
2013-Jun-24 18:28N 37°52' W 123°05'1 1.0
2013-Jun-24 17:15N 37°51' W 123°06'1 1.7
2013-Jun-24 16:25N 37°52' W 123°06'3 3.1
2013-Jun-24 15:25N 37°49' W 123°07'2 0.7
2013-Jun-24 12:04N 37°47' W 123°06'62 1.4
2013-Jun-22 16:31N 37°01' W 122°13'  

Dump ship's entire track history

sailing weather and tide predictions

Greybeard — WCZ9876 — position and weather